Time;durP1;ratioP1;P1;durP2;ratioP2;P2;SDS_P1;SDS_P2;PMS_P1;PMS_P2;Temp;Humidity;BMP_temperature;BMP_pressure;BME280_temperature;BME280_humidity;BME280_pressure;Samples;Min_cycle;Max_cycle;Signal;HPM_P1;HPM_P2
2024/02/21 00:01:46;;;;;;;36.85;20.40;;;;;;;;;;5016567;28;20646;-75
2024/02/21 00:04:13;;;;;;;27.85;14.73;;;;;;;;;;5084198;28;20494;-75
2024/02/21 00:06:39;;;;;;;19.55;9.30;;;;;;;;;;5016232;28;20029;-74
2024/02/21 00:09:05;;;;;;;13.32;8.93;;;;;;;;;;5016250;28;20046;-73
2024/02/21 00:11:31;;;;;;;20.75;11.00;;;;;;;;;;5016196;28;20093;-73
2024/02/21 00:13:57;;;;;;;21.63;12.68;;;;;;;;;;5084093;28;20026;-74
2024/02/21 00:16:23;;;;;;;22.83;13.20;;;;;;;;;;5016325;28;20356;-77
2024/02/21 00:18:49;;;;;;;23.92;12.23;;;;;;;;;;5016329;28;20026;-75
2024/02/21 00:21:17;;;;;;;20.10;11.82;;;;;;;;;;5016223;28;20479;-77
2024/02/21 00:23:46;;;;;;;19.90;10.45;;;;;;;;;;5084074;28;20033;-77
2024/02/21 00:26:13;;;;;;;16.08;9.70;;;;;;;;;;5083706;28;20104;-77
2024/02/21 00:28:39;;;;;;;13.77;8.32;;;;;;;;;;5016235;28;20112;-75
2024/02/21 00:31:05;;;;;;;16.27;8.07;;;;;;;;;;5083594;28;20030;-77
2024/02/21 00:33:31;;;;;;;10.68;6.43;;;;;;;;;;5015995;28;20384;-73
2024/02/21 00:35:57;;;;;;;11.18;5.93;;;;;;;;;;5015678;28;20026;-74
2024/02/21 00:38:23;;;;;;;14.85;7.97;;;;;;;;;;5016442;28;20057;-73
2024/02/21 00:40:50;;;;;;;15.85;8.27;;;;;;;;;;5015568;28;20057;-73
2024/02/21 00:43:16;;;;;;;15.15;7.82;;;;;;;;;;5015807;28;20045;-74
2024/02/21 00:45:42;;;;;;;15.85;9.93;;;;;;;;;;5015900;28;20022;-73
2024/02/21 00:48:08;;;;;;;17.88;10.20;;;;;;;;;;5015831;28;20038;-73
2024/02/21 00:50:37;;;;;;;15.77;8.75;;;;;;;;;;5015795;28;20495;-74
2024/02/21 00:53:03;;;;;;;15.77;10.00;;;;;;;;;;5003224;28;20512;-74
2024/02/21 00:55:29;;;;;;;12.95;8.70;;;;;;;;;;5015844;28;20025;-75
2024/02/21 00:57:55;;;;;;;22.65;13.05;;;;;;;;;;5015811;28;20022;-75
2024/02/21 01:00:22;;;;;;;22.58;11.93;;;;;;;;;;5080466;28;20031;-74
2024/02/21 01:02:48;;;;;;;21.50;11.05;;;;;;;;;;5009290;28;20026;-73
2024/02/21 01:05:14;;;;;;;17.33;10.77;;;;;;;;;;5015198;28;20113;-75
2024/02/21 01:07:40;;;;;;;16.27;8.95;;;;;;;;;;5079386;28;20018;-74
2024/02/21 01:10:06;;;;;;;21.23;8.50;;;;;;;;;;5080079;28;20061;-73
2024/02/21 01:12:32;;;;;;;19.00;10.15;;;;;;;;;;5012309;28;20045;-74
2024/02/21 01:14:58;;;;;;;17.48;10.40;;;;;;;;;;5012171;28;20029;-75
2024/02/21 01:17:24;;;;;;;30.55;15.20;;;;;;;;;;5012499;28;20030;-74
2024/02/21 01:19:50;;;;;;;22.00;8.75;;;;;;;;;;5080055;28;20102;-75
2024/02/21 01:22:17;;;;;;;18.85;8.90;;;;;;;;;;5012121;28;20026;-76
2024/02/21 01:24:43;;;;;;;16.65;8.30;;;;;;;;;;5080029;28;20472;-75
2024/02/21 01:27:09;;;;;;;16.02;8.60;;;;;;;;;;5011994;28;20053;-74
2024/02/21 01:29:36;;;;;;;34.08;15.50;;;;;;;;;;5011921;28;20044;-74
2024/02/21 01:32:02;;;;;;;40.25;14.80;;;;;;;;;;5080171;28;20026;-76
2024/02/21 01:34:28;;;;;;;23.05;11.75;;;;;;;;;;5012269;28;20071;-75
2024/02/21 01:36:54;;;;;;;19.58;10.18;;;;;;;;;;5002782;28;20021;-76
2024/02/21 01:39:20;;;;;;;24.15;14.30;;;;;;;;;;5079893;28;20084;-76
2024/02/21 01:41:46;;;;;;;28.80;10.90;;;;;;;;;;5011584;28;20041;-74
2024/02/21 01:44:12;;;;;;;24.23;13.18;;;;;;;;;;5080059;28;20484;-74
2024/02/21 01:46:38;;;;;;;28.27;13.93;;;;;;;;;;5079629;28;20483;-76
2024/02/21 01:49:04;;;;;;;22.83;13.15;;;;;;;;;;5079686;28;20502;-76
2024/02/21 01:51:31;;;;;;;26.73;12.60;;;;;;;;;;5079631;28;20027;-74
2024/02/21 01:53:57;;;;;;;22.10;12.10;;;;;;;;;;5079590;28;20037;-76
2024/02/21 01:56:24;;;;;;;26.27;11.50;;;;;;;;;;5011688;28;20387;-76
2024/02/21 01:58:50;;;;;;;22.92;11.25;;;;;;;;;;5079851;28;20026;-76
2024/02/21 02:01:17;;;;;;;25.15;12.27;;;;;;;;;;5011600;28;20030;-75
2024/02/21 02:03:43;;;;;;;19.25;11.45;;;;;;;;;;5079793;28;20498;-74
2024/02/21 02:06:09;;;;;;;24.83;12.30;;;;;;;;;;5079003;28;20487;-76
2024/02/21 02:08:35;;;;;;;31.52;12.75;;;;;;;;;;5011645;28;20042;-74
2024/02/21 02:11:02;;;;;;;34.15;16.23;;;;;;;;;;5079224;28;20078;-74
2024/02/21 02:13:28;;;;;;;30.67;15.60;;;;;;;;;;5079080;28;20109;-75
2024/02/21 02:15:55;;;;;;;28.00;14.27;;;;;;;;;;5011487;28;20022;-74
2024/02/21 02:18:21;;;;;;;33.15;15.23;;;;;;;;;;5011058;28;20383;-74
2024/02/21 02:20:48;;;;;;;31.60;15.88;;;;;;;;;;5011431;28;20077;-76
2024/02/21 02:23:20;;;;;;;46.13;21.50;;;;;;;;;;5007562;28;20026;-75
2024/02/21 02:25:49;;;;;;;39.33;17.98;;;;;;;;;;5003384;28;20058;-74
2024/02/21 02:28:15;;;;;;;33.28;17.13;;;;;;;;;;5078584;28;20037;-75
2024/02/21 02:30:41;;;;;;;33.45;15.70;;;;;;;;;;5010880;28;20028;-76
2024/02/21 02:33:07;;;;;;;42.85;20.55;;;;;;;;;;5011392;28;20025;-76
2024/02/21 02:35:36;;;;;;;39.70;19.15;;;;;;;;;;5011088;28;20383;-74
2024/02/21 02:38:02;;;;;;;40.47;21.52;;;;;;;;;;5010873;28;20018;-74
2024/02/21 02:40:28;;;;;;;48.75;20.80;;;;;;;;;;5078582;28;20074;-74
2024/02/21 02:42:57;;;;;;;39.72;19.50;;;;;;;;;;5010653;28;20014;-74
2024/02/21 02:45:26;;;;;;;44.63;21.33;;;;;;;;;;5010848;28;20022;-76
2024/02/21 02:47:52;;;;;;;38.72;19.75;;;;;;;;;;5010587;28;20029;-74
2024/02/21 02:50:18;;;;;;;49.47;18.95;;;;;;;;;;5011093;28;20033;-74
2024/02/21 02:52:44;;;;;;;42.58;19.45;;;;;;;;;;5078204;28;20029;-74
2024/02/21 02:55:10;;;;;;;37.28;18.80;;;;;;;;;;5011060;28;20483;-74
2024/02/21 02:57:36;;;;;;;37.90;18.23;;;;;;;;;;5010763;28;20076;-74
2024/02/21 03:00:03;;;;;;;40.13;19.95;;;;;;;;;;5010889;28;20476;-75
2024/02/21 03:02:31;;;;;;;34.20;18.60;;;;;;;;;;5010614;28;20095;-74
2024/02/21 03:04:57;;;;;;;44.92;20.85;;;;;;;;;;5078492;28;20029;-74
2024/02/21 03:07:23;;;;;;;42.60;19.88;;;;;;;;;;5078030;28;20033;-74
2024/02/21 03:09:49;;;;;;;35.88;19.73;;;;;;;;;;5010267;28;20045;-74
2024/02/21 03:12:19;;;;;;;38.08;18.60;;;;;;;;;;5010429;28;20075;-74
2024/02/21 03:14:45;;;;;;;40.85;18.77;;;;;;;;;;5077717;28;20480;-74
2024/02/21 03:17:11;;;;;;;42.90;19.83;;;;;;;;;;5010478;28;20380;-76
2024/02/21 03:19:37;;;;;;;39.97;19.70;;;;;;;;;;5010599;28;20070;-74
2024/02/21 03:22:03;;;;;;;45.33;20.85;;;;;;;;;;5004271;28;20022;-74
2024/02/21 03:24:30;;;;;;;49.60;21.60;;;;;;;;;;5003894;28;20026;-74
2024/02/21 03:26:56;;;;;;;42.75;20.10;;;;;;;;;;5093276;28;20482;-76
2024/02/21 03:29:22;;;;;;;47.17;21.02;;;;;;;;;;5009559;28;20041;-76
2024/02/21 03:31:48;;;;;;;37.63;19.40;;;;;;;;;;5010026;28;20494;-76
2024/02/21 03:34:14;;;;;;;41.38;20.10;;;;;;;;;;5010159;28;20247;-75
2024/02/21 03:36:40;;;;;;;47.55;20.50;;;;;;;;;;5010319;28;20467;-75
2024/02/21 03:39:07;;;;;;;38.42;19.17;;;;;;;;;;5091421;28;20044;-74
2024/02/21 03:41:34;;;;;;;41.67;19.25;;;;;;;;;;5091327;28;20107;-74
2024/02/21 03:44:00;;;;;;;41.78;19.23;;;;;;;;;;5091355;28;20027;-76
2024/02/21 03:46:26;;;;;;;42.70;19.48;;;;;;;;;;5085385;28;20378;-76
2024/02/21 03:48:52;;;;;;;40.65;19.48;;;;;;;;;;5086303;28;20035;-74
2024/02/21 03:51:18;;;;;;;42.15;18.90;;;;;;;;;;5092821;28;20449;-76
2024/02/21 03:53:44;;;;;;;43.53;19.00;;;;;;;;;;5092717;28;20473;-75
2024/02/21 03:56:10;;;;;;;44.45;20.08;;;;;;;;;;5092782;28;20027;-76
2024/02/21 03:58:36;;;;;;;43.72;20.73;;;;;;;;;;5092501;28;20024;-76
2024/02/21 04:01:02;;;;;;;41.05;19.80;;;;;;;;;;5092533;28;20013;-74
2024/02/21 04:03:28;;;;;;;43.63;20.45;;;;;;;;;;5092628;28;20035;-74
2024/02/21 04:05:54;;;;;;;43.72;19.40;;;;;;;;;;5092728;28;20024;-74
2024/02/21 04:08:20;;;;;;;44.72;19.15;;;;;;;;;;5092302;28;20020;-75
2024/02/21 04:10:46;;;;;;;47.85;21.15;;;;;;;;;;5092514;28;20015;-74
2024/02/21 04:13:12;;;;;;;48.67;22.05;;;;;;;;;;5092549;28;20032;-75
2024/02/21 04:15:38;;;;;;;38.08;18.92;;;;;;;;;;5091298;28;20070;-75
2024/02/21 04:18:04;;;;;;;45.05;20.23;;;;;;;;;;5092204;28;20024;-76
2024/02/21 04:20:31;;;;;;;34.90;18.90;;;;;;;;;;5092702;28;20025;-74
2024/02/21 04:22:57;;;;;;;38.58;19.05;;;;;;;;;;5090913;28;20031;-75
2024/02/21 04:25:23;;;;;;;46.50;19.67;;;;;;;;;;5092619;28;20020;-74
2024/02/21 04:27:49;;;;;;;40.40;20.77;;;;;;;;;;5090756;28;20488;-74
2024/02/21 04:30:15;;;;;;;40.00;20.20;;;;;;;;;;5092365;28;20067;-74
2024/02/21 04:32:42;;;;;;;43.05;21.45;;;;;;;;;;5092101;28;20024;-75
2024/02/21 04:35:08;;;;;;;45.42;20.77;;;;;;;;;;5092588;28;20044;-75
2024/02/21 04:37:34;;;;;;;54.08;22.80;;;;;;;;;;5092192;28;20378;-76
2024/02/21 04:40:00;;;;;;;75.90;33.55;;;;;;;;;;5041390;28;20034;-74
2024/02/21 04:42:26;;;;;;;82.75;36.58;;;;;;;;;;5012736;28;20060;-74
2024/02/21 04:44:52;;;;;;;72.10;34.88;;;;;;;;;;5012924;28;20041;-76
2024/02/21 04:47:19;;;;;;;59.78;27.70;;;;;;;;;;5012595;28;20030;-74
2024/02/21 04:49:45;;;;;;;59.92;28.08;;;;;;;;;;5080924;28;20042;-74
2024/02/21 04:52:12;;;;;;;60.08;28.08;;;;;;;;;;5012475;28;20026;-74
2024/02/21 04:54:38;;;;;;;51.75;25.38;;;;;;;;;;5012896;28;20025;-74
2024/02/21 04:57:04;;;;;;;56.30;27.45;;;;;;;;;;5012611;28;20480;-76
2024/02/21 04:59:30;;;;;;;62.90;27.42;;;;;;;;;;5080710;28;20103;-74
2024/02/21 05:01:56;;;;;;;46.25;23.02;;;;;;;;;;5080118;28;20565;-75
2024/02/21 05:04:22;;;;;;;38.42;18.10;;;;;;;;;;5012782;28;20030;-75
2024/02/21 05:06:49;;;;;;;39.70;16.92;;;;;;;;;;5012329;28;20443;-76
2024/02/21 05:09:15;;;;;;;44.47;17.85;;;;;;;;;;5012490;28;20046;-75
2024/02/21 05:11:41;;;;;;;37.92;17.95;;;;;;;;;;4999767;28;20064;-74
2024/02/21 05:14:07;;;;;;;51.75;20.83;;;;;;;;;;5012516;28;20415;-74
2024/02/21 05:16:33;;;;;;;45.72;19.45;;;;;;;;;;5080163;28;20117;-75
2024/02/21 05:18:59;;;;;;;48.92;23.05;;;;;;;;;;5012509;28;20026;-75
2024/02/21 05:21:25;;;;;;;45.55;21.92;;;;;;;;;;5012141;28;20026;-76
2024/02/21 05:23:51;;;;;;;38.95;16.73;;;;;;;;;;5080325;28;20487;-76
2024/02/21 05:26:22;;;;;;;40.28;16.02;;;;;;;;;;5080081;28;20082;-75
2024/02/21 05:28:49;;;;;;;35.53;16.88;;;;;;;;;;5012078;28;20042;-75
2024/02/21 05:31:15;;;;;;;41.90;16.58;;;;;;;;;;5011994;28;20022;-74
2024/02/21 05:33:41;;;;;;;36.63;17.55;;;;;;;;;;5080113;28;20022;-74
2024/02/21 05:36:08;;;;;;;39.55;17.63;;;;;;;;;;5079475;28;20018;-76
2024/02/21 05:38:34;;;;;;;30.30;15.77;;;;;;;;;;5079848;28;20467;-74
2024/02/21 05:41:00;;;;;;;36.83;17.45;;;;;;;;;;5011724;28;20464;-76
2024/02/21 05:43:26;;;;;;;34.85;15.50;;;;;;;;;;5080010;28;20511;-74
2024/02/21 05:45:52;;;;;;;40.00;16.15;;;;;;;;;;5011361;28;20495;-73
2024/02/21 05:48:18;;;;;;;31.80;16.15;;;;;;;;;;5011863;28;20082;-75
2024/02/21 05:50:45;;;;;;;43.05;18.50;;;;;;;;;;5079412;28;20040;-75
2024/02/21 05:53:11;;;;;;;34.25;17.10;;;;;;;;;;5002125;28;20018;-75
2024/02/21 05:55:37;;;;;;;37.88;17.25;;;;;;;;;;5075248;28;20022;-73
2024/02/21 05:58:03;;;;;;;37.67;16.33;;;;;;;;;;5011878;28;20079;-73
2024/02/21 06:00:29;;;;;;;46.75;19.20;;;;;;;;;;4999006;28;20072;-73
2024/02/21 06:02:55;;;;;;;40.40;18.55;;;;;;;;;;5011716;28;20026;-76
2024/02/21 06:05:21;;;;;;;38.42;16.80;;;;;;;;;;5079429;28;20030;-74
2024/02/21 06:07:47;;;;;;;36.42;17.92;;;;;;;;;;5002855;28;20109;-74
2024/02/21 06:10:13;;;;;;;44.28;16.60;;;;;;;;;;5075442;28;20037;-74
2024/02/21 06:12:39;;;;;;;43.03;17.33;;;;;;;;;;5011634;28;20029;-74
2024/02/21 06:15:06;;;;;;;38.67;17.77;;;;;;;;;;5078976;28;20026;-74
2024/02/21 06:17:32;;;;;;;41.95;18.35;;;;;;;;;;5011580;28;20026;-74
2024/02/21 06:19:58;;;;;;;33.92;17.90;;;;;;;;;;5079163;28;20026;-74
2024/02/21 06:22:24;;;;;;;36.17;18.08;;;;;;;;;;5079152;28;20048;-76
2024/02/21 06:24:50;;;;;;;43.95;18.35;;;;;;;;;;5078619;28;20086;-74
2024/02/21 06:27:17;;;;;;;31.17;17.00;;;;;;;;;;5079175;28;20501;-74
2024/02/21 06:29:43;;;;;;;42.67;18.65;;;;;;;;;;5011019;28;20083;-76
2024/02/21 06:32:09;;;;;;;39.72;19.33;;;;;;;;;;5011238;28;20018;-76
2024/02/21 06:34:35;;;;;;;38.88;17.60;;;;;;;;;;5011134;28;20049;-74
2024/02/21 06:37:01;;;;;;;38.17;18.45;;;;;;;;;;5011080;28;20022;-76
2024/02/21 06:39:28;;;;;;;40.15;20.98;;;;;;;;;;5078512;28;20046;-74
2024/02/21 06:41:54;;;;;;;38.78;20.70;;;;;;;;;;5001511;28;20037;-74
2024/02/21 06:44:22;;;;;;;39.42;18.90;;;;;;;;;;5006810;28;20029;-76
2024/02/21 06:46:48;;;;;;;44.38;19.77;;;;;;;;;;5078694;28;20044;-76
2024/02/21 06:49:16;;;;;;;41.55;18.80;;;;;;;;;;5007115;28;20073;-74
2024/02/21 06:51:43;;;;;;;43.97;18.33;;;;;;;;;;5001785;28;20097;-75
2024/02/21 06:54:09;;;;;;;37.92;18.95;;;;;;;;;;5010927;28;20018;-76
2024/02/21 06:56:36;;;;;;;35.28;19.25;;;;;;;;;;5010827;28;20026;-76
2024/02/21 06:59:03;;;;;;;42.50;18.48;;;;;;;;;;5010644;28;20483;-74
2024/02/21 07:01:29;;;;;;;40.97;19.27;;;;;;;;;;5010679;28;20086;-74
2024/02/21 07:03:56;;;;;;;36.63;17.77;;;;;;;;;;5009508;28;20024;-74
2024/02/21 07:06:22;;;;;;;42.38;18.23;;;;;;;;;;5078300;28;20033;-76
2024/02/21 07:08:48;;;;;;;35.17;17.17;;;;;;;;;;5077896;28;20029;-74
2024/02/21 07:11:14;;;;;;;37.42;19.33;;;;;;;;;;5078355;28;20090;-75
2024/02/21 07:13:40;;;;;;;31.63;16.80;;;;;;;;;;5078087;28;20024;-76
2024/02/21 07:16:06;;;;;;;33.03;18.90;;;;;;;;;;5010527;28;20532;-76
2024/02/21 07:18:32;;;;;;;30.65;16.55;;;;;;;;;;5077705;28;20025;-76
2024/02/21 07:20:58;;;;;;;29.00;15.45;;;;;;;;;;5010444;28;20163;-74
2024/02/21 07:23:28;;;;;;;36.78;16.13;;;;;;;;;;5076006;28;20045;-77
2024/02/21 07:25:54;;;;;;;34.40;16.63;;;;;;;;;;5078224;28;20045;-74
2024/02/21 07:28:20;;;;;;;28.70;17.27;;;;;;;;;;5074114;28;20486;-75
2024/02/21 07:30:46;;;;;;;27.70;13.32;;;;;;;;;;5081634;28;20610;-75
2024/02/21 07:33:12;;;;;;;31.52;15.20;;;;;;;;;;5008207;28;20097;-75
2024/02/21 07:35:40;;;;;;;30.10;15.30;;;;;;;;;;5008746;28;20039;-74
2024/02/21 07:38:07;;;;;;;30.13;14.20;;;;;;;;;;5009080;28;20039;-75
2024/02/21 07:40:33;;;;;;;28.50;15.15;;;;;;;;;;5008991;28;20050;-74
2024/02/21 07:42:59;;;;;;;34.30;16.63;;;;;;;;;;5010180;28;20471;-74
2024/02/21 07:45:26;;;;;;;31.38;15.63;;;;;;;;;;5010140;28;20064;-76
2024/02/21 07:47:52;;;;;;;32.55;15.85;;;;;;;;;;5008276;28;20022;-74
2024/02/21 07:50:18;;;;;;;25.30;13.90;;;;;;;;;;5075712;28;20146;-75
2024/02/21 07:52:44;;;;;;;30.85;14.20;;;;;;;;;;5075364;28;20033;-74
2024/02/21 07:55:10;;;;;;;31.95;15.35;;;;;;;;;;5008067;28;20024;-74
2024/02/21 07:57:36;;;;;;;27.38;15.18;;;;;;;;;;5008024;28;20022;-74
2024/02/21 08:00:04;;;;;;;26.33;14.88;;;;;;;;;;5008196;28;20026;-75
2024/02/21 08:02:30;;;;;;;29.88;14.45;;;;;;;;;;5009004;28;20029;-75
2024/02/21 08:04:56;;;;;;;30.50;14.55;;;;;;;;;;5077955;28;20478;-75
2024/02/21 08:07:22;;;;;;;26.90;14.60;;;;;;;;;;5077562;28;20407;-75
2024/02/21 08:09:48;;;;;;;28.85;15.48;;;;;;;;;;5009784;28;20029;-74
2024/02/21 08:12:14;;;;;;;31.08;14.15;;;;;;;;;;5077345;28;20030;-76
2024/02/21 08:14:40;;;;;;;29.00;14.00;;;;;;;;;;5009967;28;20071;-74
2024/02/21 08:17:06;;;;;;;28.45;14.13;;;;;;;;;;5081070;28;20108;-76
2024/02/21 08:19:33;;;;;;;26.02;15.77;;;;;;;;;;5081400;28;20025;-74
2024/02/21 08:21:59;;;;;;;25.95;13.40;;;;;;;;;;5081210;28;20105;-75
2024/02/21 08:24:25;;;;;;;27.10;14.93;;;;;;;;;;5013263;28;20034;-74
2024/02/21 08:26:51;;;;;;;25.83;12.80;;;;;;;;;;5013047;28;20018;-76
2024/02/21 08:29:17;;;;;;;25.38;13.48;;;;;;;;;;5012884;28;20042;-74
2024/02/21 08:31:43;;;;;;;21.50;11.88;;;;;;;;;;5081084;28;20032;-76
2024/02/21 08:34:09;;;;;;;23.55;11.93;;;;;;;;;;5013053;28;20018;-76
2024/02/21 08:36:35;;;;;;;25.63;12.00;;;;;;;;;;5012970;28;20030;-76
2024/02/21 08:39:05;;;;;;;23.65;12.27;;;;;;;;;;5012732;28;20483;-76
2024/02/21 08:41:31;;;;;;;24.38;11.98;;;;;;;;;;5001296;28;20091;-76
2024/02/21 08:43:57;;;;;;;26.95;11.00;;;;;;;;;;5080777;28;20028;-75
2024/02/21 08:46:24;;;;;;;18.45;10.73;;;;;;;;;;5080812;28;20026;-75
2024/02/21 08:48:51;;;;;;;22.77;11.55;;;;;;;;;;5012602;28;20392;-74
2024/02/21 08:51:17;;;;;;;27.40;12.15;;;;;;;;;;5080934;28;20044;-74
2024/02/21 08:53:47;;;;;;;22.42;9.80;;;;;;;;;;5080850;28;20510;-76
2024/02/21 08:56:13;;;;;;;16.30;9.25;;;;;;;;;;5080609;28;20091;-75
2024/02/21 08:58:42;;;;;;;20.10;10.23;;;;;;;;;;5080610;28;20033;-74
2024/02/21 09:01:11;;;;;;;27.63;10.60;;;;;;;;;;5012626;28;20583;-75
2024/02/21 09:03:38;;;;;;;16.83;8.68;;;;;;;;;;5012483;28;20014;-75
2024/02/21 09:06:07;;;;;;;18.50;9.73;;;;;;;;;;5080581;28;20030;-75
2024/02/21 09:08:33;;;;;;;21.60;8.85;;;;;;;;;;5080186;28;20029;-75
2024/02/21 09:11:01;;;;;;;21.13;9.68;;;;;;;;;;5012593;28;20030;-75
2024/02/21 09:13:27;;;;;;;22.60;9.13;;;;;;;;;;5012326;28;20026;-76
2024/02/21 09:15:53;;;;;;;20.02;9.68;;;;;;;;;;5080562;28;20061;-75
2024/02/21 09:18:19;;;;;;;19.00;8.70;;;;;;;;;;5080131;28;20071;-75
2024/02/21 09:20:45;;;;;;;17.50;8.00;;;;;;;;;;5012260;28;20026;-74
2024/02/21 09:23:11;;;;;;;18.33;8.90;;;;;;;;;;5011984;28;20024;-76
2024/02/21 09:25:37;;;;;;;14.10;6.78;;;;;;;;;;5080119;28;20034;-76
2024/02/21 09:28:06;;;;;;;16.95;7.38;;;;;;;;;;5078691;28;20113;-77
2024/02/21 09:30:32;;;;;;;15.48;7.13;;;;;;;;;;5080188;28;20079;-75
2024/02/21 09:33:02;;;;;;;14.23;6.68;;;;;;;;;;5079605;28;20078;-75
2024/02/21 09:35:28;;;;;;;15.65;7.13;;;;;;;;;;5012028;28;20034;-75
2024/02/21 09:37:54;;;;;;;15.70;6.78;;;;;;;;;;5011849;28;20026;-75
2024/02/21 09:40:20;;;;;;;11.25;6.57;;;;;;;;;;5011410;28;20423;-75
2024/02/21 09:42:47;;;;;;;13.90;6.75;;;;;;;;;;5079351;28;20154;-75
2024/02/21 09:45:13;;;;;;;19.08;6.53;;;;;;;;;;5079729;28;20034;-76
2024/02/21 09:47:39;;;;;;;11.38;6.05;;;;;;;;;;4998647;28;20038;-75
2024/02/21 09:50:06;;;;;;;13.63;7.05;;;;;;;;;;5079780;28;20515;-77
2024/02/21 09:52:33;;;;;;;14.20;7.45;;;;;;;;;;5079404;28;20387;-75
2024/02/21 09:54:59;;;;;;;17.15;7.75;;;;;;;;;;5011861;28;20026;-75
2024/02/21 09:57:25;;;;;;;13.38;5.93;;;;;;;;;;5080051;28;20113;-75
2024/02/21 09:59:52;;;;;;;14.50;5.93;;;;;;;;;;5079561;28;20112;-76
2024/02/21 10:02:18;;;;;;;13.32;7.07;;;;;;;;;;5079436;28;20055;-76
2024/02/21 10:04:44;;;;;;;11.82;5.93;;;;;;;;;;5011683;28;20057;-75
2024/02/21 10:07:11;;;;;;;12.73;7.07;;;;;;;;;;5011354;28;20033;-75
2024/02/21 10:09:37;;;;;;;12.68;6.05;;;;;;;;;;5079166;28;20041;-76
2024/02/21 10:12:12;;;;;;;17.35;7.05;;;;;;;;;;5078785;28;20028;-76
2024/02/21 10:14:39;;;;;;;12.65;5.78;;;;;;;;;;5011573;28;20049;-76
2024/02/21 10:17:09;;;;;;;14.02;6.70;;;;;;;;;;5078700;28;20106;-75
2024/02/21 10:19:35;;;;;;;12.88;5.63;;;;;;;;;;5078906;28;20550;-76
2024/02/21 10:22:03;;;;;;;12.80;6.28;;;;;;;;;;5079795;28;20502;-76
2024/02/21 10:24:29;;;;;;;14.88;5.97;;;;;;;;;;5078768;28;20483;-76
2024/02/21 10:27:08;;;;;;;10.48;5.47;;;;;;;;;;5011258;28;20101;-76
2024/02/21 10:29:34;;;;;;;21.88;8.48;;;;;;;;;;5011021;28;20041;-76
2024/02/21 10:32:11;;;;;;;16.05;9.10;;;;;;;;;;5078832;28;20497;-75
2024/02/21 10:34:37;;;;;;;10.57;5.88;;;;;;;;;;5078720;28;20033;-75
2024/02/21 10:37:04;;;;;;;12.38;7.03;;;;;;;;;;5011022;28;20030;-76
2024/02/21 10:39:34;;;;;;;11.77;6.22;;;;;;;;;;5010499;28;20069;-76
2024/02/21 10:42:03;;;;;;;16.13;6.03;;;;;;;;;;5078726;28;20079;-75
2024/02/21 10:44:33;;;;;;;15.65;6.18;;;;;;;;;;5010592;28;20014;-75
2024/02/21 10:46:59;;;;;;;15.43;6.32;;;;;;;;;;5010646;28;20072;-75
2024/02/21 10:49:31;;;;;;;22.02;6.90;;;;;;;;;;5010679;28;20049;-75
2024/02/21 10:52:12;;;;;;;17.33;6.00;;;;;;;;;;5011077;28;20071;-75
2024/02/21 10:54:46;;;;;;;10.95;4.80;;;;;;;;;;5063030;28;20155;-75
2024/02/21 10:57:13;;;;;;;14.90;5.40;;;;;;;;;;5006783;28;20142;-75
2024/02/21 10:59:40;;;;;;;18.60;6.53;;;;;;;;;;5010561;28;20506;-75
2024/02/21 11:02:07;;;;;;;12.65;5.05;;;;;;;;;;5010571;28;20113;-76
2024/02/21 11:04:36;;;;;;;16.25;5.38;;;;;;;;;;5010895;28;20037;-75
2024/02/21 11:07:03;;;;;;;9.50;4.55;;;;;;;;;;5010462;28;20158;-76
2024/02/21 11:09:33;;;;;;;10.75;5.00;;;;;;;;;;5078382;28;20048;-76
2024/02/21 11:11:59;;;;;;;12.02;4.88;;;;;;;;;;5091890;28;20514;-75
2024/02/21 11:14:26;;;;;;;9.43;4.82;;;;;;;;;;5010585;28;20041;-76
2024/02/21 11:16:52;;;;;;;9.13;4.78;;;;;;;;;;5010249;28;20021;-75
2024/02/21 11:19:28;;;;;;;8.07;4.68;;;;;;;;;;5009605;28;20033;-77
2024/02/21 11:21:56;;;;;;;12.93;5.82;;;;;;;;;;5010277;28;20022;-75
2024/02/21 11:24:27;;;;;;;7.75;4.63;;;;;;;;;;5010551;28;20528;-76
2024/02/21 11:26:53;;;;;;;8.90;4.88;;;;;;;;;;5010300;28;20067;-76
2024/02/21 11:29:28;;;;;;;13.02;5.47;;;;;;;;;;5010240;28;20034;-77
2024/02/21 11:31:55;;;;;;;11.18;5.47;;;;;;;;;;5082720;28;20033;-77
2024/02/21 11:34:21;;;;;;;14.50;5.22;;;;;;;;;;5075901;28;20116;-75
2024/02/21 11:36:49;;;;;;;12.25;5.47;;;;;;;;;;4998947;28;20121;-77
2024/02/21 11:39:35;;;;;;;11.25;6.15;;;;;;;;;;5076640;28;20080;-75
2024/02/21 11:42:01;;;;;;;11.20;5.15;;;;;;;;;;5010157;28;20022;-75
2024/02/21 11:44:27;;;;;;;13.55;5.68;;;;;;;;;;5008814;28;20098;-77
2024/02/21 11:46:53;;;;;;;12.50;5.18;;;;;;;;;;5009932;28;20057;-75
2024/02/21 11:49:19;;;;;;;9.63;5.40;;;;;;;;;;5077662;28;20069;-75
2024/02/21 11:51:45;;;;;;;9.23;4.93;;;;;;;;;;4998092;28;20035;-76
2024/02/21 11:54:16;;;;;;;12.68;5.68;;;;;;;;;;5065396;28;20076;-75
2024/02/21 11:56:42;;;;;;;14.95;5.28;;;;;;;;;;5009708;28;20026;-74
2024/02/21 11:59:09;;;;;;;15.55;6.15;;;;;;;;;;5009987;28;20056;-75
2024/02/21 12:01:35;;;;;;;23.00;10.10;;;;;;;;;;5077286;28;20030;-75
2024/02/21 12:04:01;;;;;;;10.98;6.07;;;;;;;;;;5004321;28;20026;-75
2024/02/21 12:06:27;;;;;;;11.00;5.03;;;;;;;;;;5007255;28;20027;-75
2024/02/21 12:08:59;;;;;;;12.20;5.75;;;;;;;;;;5073920;28;20038;-79
2024/02/21 12:11:25;;;;;;;13.07;4.90;;;;;;;;;;5071181;28;20038;-79
2024/02/21 12:14:01;;;;;;;11.88;4.47;;;;;;;;;;5000852;28;20131;-78
2024/02/21 12:16:30;;;;;;;10.18;4.88;;;;;;;;;;5072306;28;20399;-78
2024/02/21 12:19:00;;;;;;;11.38;5.30;;;;;;;;;;4992428;28;20027;-83
2024/02/21 12:21:36;;;;;;;12.07;5.68;;;;;;;;;;5060753;28;20035;-87
2024/02/21 12:24:18;;;;;;;12.50;5.93;;;;;;;;;;5065195;28;20029;-87
2024/02/21 12:26:44;;;;;;;10.70;5.45;;;;;;;;;;5067146;28;20035;-79
2024/02/21 12:29:13;;;;;;;15.57;5.70;;;;;;;;;;4998430;28;20034;-81
2024/02/21 12:31:39;;;;;;;13.55;5.20;;;;;;;;;;5069734;28;20117;-82
2024/02/21 12:34:05;;;;;;;9.45;4.78;;;;;;;;;;5026830;28;20483;-87
2024/02/21 12:36:32;;;;;;;8.45;5.18;;;;;;;;;;5000592;28;20032;-79
2024/02/21 12:38:58;;;;;;;10.27;5.20;;;;;;;;;;5084483;28;20048;-80
2024/02/21 12:41:27;;;;;;;11.98;5.50;;;;;;;;;;5071573;28;20042;-87
2024/02/21 12:43:54;;;;;;;14.93;5.55;;;;;;;;;;5001748;28;20030;-80
2024/02/21 12:46:20;;;;;;;10.05;5.65;;;;;;;;;;5065590;28;20042;-78
2024/02/21 12:48:46;;;;;;;11.23;5.38;;;;;;;;;;5075871;28;20022;-77
2024/02/21 12:51:12;;;;;;;13.32;4.97;;;;;;;;;;5076555;28;20069;-87
2024/02/21 12:53:39;;;;;;;8.27;5.13;;;;;;;;;;5006339;28;20023;-77
2024/02/21 12:56:07;;;;;;;11.32;5.20;;;;;;;;;;5070628;28;20045;-77
2024/02/21 12:58:33;;;;;;;12.25;5.65;;;;;;;;;;4999098;28;20031;-78
2024/02/21 13:01:00;;;;;;;11.00;5.15;;;;;;;;;;5057796;28;20034;-77
2024/02/21 13:03:26;;;;;;;14.88;6.50;;;;;;;;;;5077976;28;20026;-77
2024/02/21 13:05:52;;;;;;;17.55;6.00;;;;;;;;;;5006120;28;20034;-79
2024/02/21 13:08:21;;;;;;;12.43;6.15;;;;;;;;;;5010112;28;20014;-78
2024/02/21 13:10:49;;;;;;;14.50;6.03;;;;;;;;;;5077213;28;20078;-77
2024/02/21 13:13:15;;;;;;;11.27;5.65;;;;;;;;;;5077080;28;20018;-77
2024/02/21 13:15:42;;;;;;;15.32;5.72;;;;;;;;;;5077156;28;20433;-78
2024/02/21 13:18:09;;;;;;;8.95;5.10;;;;;;;;;;5002162;28;20380;-78
2024/02/21 13:20:36;;;;;;;14.45;6.55;;;;;;;;;;5019320;28;20484;-77
2024/02/21 13:23:03;;;;;;;11.57;6.25;;;;;;;;;;5093218;28;20105;-81
2024/02/21 13:25:29;;;;;;;20.08;7.80;;;;;;;;;;5078688;28;20038;-85
2024/02/21 13:27:56;;;;;;;13.02;6.53;;;;;;;;;;4997778;28;20100;-78
2024/02/21 13:30:22;;;;;;;15.95;6.55;;;;;;;;;;5070064;28;20103;-78
2024/02/21 13:32:48;;;;;;;13.32;6.20;;;;;;;;;;5076844;28;20569;-84
2024/02/21 13:35:14;;;;;;;12.73;7.82;;;;;;;;;;5000288;28;20040;-83
2024/02/21 13:37:41;;;;;;;11.93;7.13;;;;;;;;;;5071100;28;20034;-79
2024/02/21 13:40:11;;;;;;;20.48;6.90;;;;;;;;;;5090959;28;20054;-83
2024/02/21 13:42:38;;;;;;;15.50;6.40;;;;;;;;;;5092454;28;20031;-80
2024/02/21 13:45:05;;;;;;;13.07;6.40;;;;;;;;;;5080562;28;20105;-84
2024/02/21 13:47:32;;;;;;;15.57;7.57;;;;;;;;;;5078929;28;20068;-86
2024/02/21 13:49:58;;;;;;;11.48;5.95;;;;;;;;;;5092046;28;20064;-86
2024/02/21 13:52:26;;;;;;;24.63;14.45;;;;;;;;;;5083145;28;20042;-84
2024/02/21 13:54:52;;;;;;;505.52;178.70;;;;;;;;;;5080766;28;20066;-78
2024/02/21 13:57:18;;;;;;;489.92;233.55;;;;;;;;;;5092934;28;20382;-84
2024/02/21 13:59:44;;;;;;;162.27;98.90;;;;;;;;;;5089333;28;20163;-80
2024/02/21 14:02:11;;;;;;;116.72;68.97;;;;;;;;;;5092058;28;20028;-81
2024/02/21 14:04:37;;;;;;;157.30;102.72;;;;;;;;;;5083267;28;20028;-80
2024/02/21 14:07:03;;;;;;;198.13;124.18;;;;;;;;;;5084095;28;20025;-79
2024/02/21 14:09:29;;;;;;;350.05;243.13;;;;;;;;;;5083086;28;20043;-79
2024/02/21 14:11:55;;;;;;;139.23;98.03;;;;;;;;;;5090259;28;20028;-78
2024/02/21 14:14:21;;;;;;;54.65;32.08;;;;;;;;;;5082764;28;20073;-84
2024/02/21 14:16:48;;;;;;;27.73;15.07;;;;;;;;;;5088863;28;20030;-84
2024/02/21 14:19:14;;;;;;;32.97;18.27;;;;;;;;;;5089982;28;20028;-79